createdAt,value
2022-10-17T00:00:46.619Z,11.40
2022-10-17T00:03:13.586Z,11.30
2022-10-17T00:05:42.843Z,11.20
2022-10-17T00:08:11.346Z,11.10
2022-10-17T00:10:38.886Z,11.00
2022-10-17T00:13:06.601Z,11.00
2022-10-17T00:15:33.685Z,10.90
2022-10-17T00:18:02.099Z,10.90
2022-10-17T00:20:30.473Z,11.00
2022-10-17T00:22:57.674Z,11.00
2022-10-17T00:25:24.464Z,11.10
2022-10-17T00:27:51.466Z,11.20
2022-10-17T00:30:18.385Z,11.30
2022-10-17T00:32:45.372Z,11.30
2022-10-17T00:35:12.366Z,11.30
2022-10-17T00:37:39.358Z,11.40
2022-10-17T00:40:07.389Z,11.30
2022-10-17T00:42:34.261Z,11.20
2022-10-17T00:45:12.994Z,11.20
2022-10-17T00:47:40.845Z,11.10
2022-10-17T00:50:08.877Z,11.00
2022-10-17T00:52:36.194Z,11.00
2022-10-17T00:55:10.579Z,10.90
2022-10-17T00:57:38.614Z,10.90
2022-10-17T01:00:09.073Z,10.90
2022-10-17T01:02:36.361Z,11.00
2022-10-17T01:05:04.494Z,11.10
2022-10-17T01:07:34.944Z,11.30
2022-10-17T01:10:05.465Z,11.40
2022-10-17T01:12:52.676Z,11.50
2022-10-17T01:15:29.253Z,11.60
2022-10-17T01:18:15.784Z,11.60
2022-10-17T01:21:06.714Z,11.70
2022-10-17T01:23:45.398Z,11.70
2022-10-17T01:26:52.712Z,11.70
2022-10-17T01:29:30.595Z,11.70
2022-10-17T01:32:18.823Z,11.70
2022-10-17T01:35:12.095Z,11.80
2022-10-17T01:37:56.998Z,11.80
2022-10-17T01:40:39.567Z,11.90
2022-10-17T01:43:13.719Z,11.90
2022-10-17T01:45:57.216Z,11.90
2022-10-17T01:48:29.374Z,11.90
2022-10-17T01:51:06.766Z,11.90
2022-10-17T01:53:54.687Z,11.90
2022-10-17T01:56:24.805Z,11.90
2022-10-17T01:58:57.476Z,11.90
2022-10-17T02:01:26.735Z,11.80
2022-10-17T02:03:54.586Z,11.80
2022-10-17T02:06:21.393Z,11.80
2022-10-17T02:08:50.962Z,11.90
2022-10-17T02:11:23.271Z,12.00
2022-10-17T02:14:27.752Z,12.00
2022-10-17T02:17:19.543Z,12.00
2022-10-17T02:20:18.865Z,12.10
2022-10-17T02:22:49.460Z,12.00
2022-10-17T02:25:55.251Z,12.20
2022-10-17T02:28:57.569Z,12.10
2022-10-17T02:31:33.690Z,12.10
2022-10-17T02:34:03.841Z,12.10
2022-10-17T02:36:38.973Z,12.20
2022-10-17T02:39:08.428Z,12.10
2022-10-17T02:41:37.240Z,12.20
2022-10-17T02:44:05.704Z,12.20
2022-10-17T02:46:33.652Z,12.20
2022-10-17T02:49:13.984Z,12.30
2022-10-17T02:52:03.977Z,12.30
2022-10-17T02:54:56.998Z,12.30
2022-10-17T02:57:48.044Z,12.30
2022-10-17T03:00:16.975Z,12.40
2022-10-17T03:02:46.671Z,12.40
2022-10-17T03:05:20.164Z,12.50
2022-10-17T03:07:47.425Z,12.50
2022-10-17T03:10:14.443Z,12.60
2022-10-17T03:12:41.290Z,12.60
2022-10-17T03:15:08.586Z,12.60
2022-10-17T03:17:36.104Z,12.60
2022-10-17T03:20:03.455Z,12.60
2022-10-17T03:22:30.633Z,12.60
2022-10-17T03:24:58.005Z,12.60
2022-10-17T03:27:25.457Z,12.60
2022-10-17T03:29:52.304Z,12.70
2022-10-17T03:32:19.179Z,12.60
2022-10-17T03:34:45.939Z,12.70
2022-10-17T03:37:12.791Z,12.70
2022-10-17T03:39:39.600Z,12.70
2022-10-17T03:42:06.385Z,12.70
2022-10-17T03:44:33.153Z,12.60
2022-10-17T03:46:59.953Z,12.60
2022-10-17T03:49:26.699Z,12.60
2022-10-17T03:51:53.557Z,12.70
2022-10-17T03:54:20.313Z,12.70
2022-10-17T03:56:47.204Z,12.70
2022-10-17T03:59:15.554Z,12.80
2022-10-17T04:01:42.829Z,12.70
2022-10-17T04:04:09.803Z,12.80
2022-10-17T04:06:37.854Z,12.80
2022-10-17T04:09:06.327Z,12.80
2022-10-17T04:11:33.291Z,12.70
2022-10-17T04:14:00.189Z,12.70
2022-10-17T04:16:27.678Z,12.60
2022-10-17T04:18:56.151Z,12.60
2022-10-17T04:21:25.241Z,12.60
2022-10-17T04:24:00.146Z,12.50
2022-10-17T04:26:28.009Z,12.50
2022-10-17T04:28:54.848Z,12.50
2022-10-17T04:31:21.844Z,12.50
2022-10-17T04:33:50.280Z,12.50
2022-10-17T04:36:19.672Z,12.50
2022-10-17T04:38:47.135Z,12.60
2022-10-17T04:41:16.438Z,12.50
2022-10-17T04:43:45.590Z,12.50
2022-10-17T04:46:15.802Z,12.60
2022-10-17T04:48:43.023Z,12.60
2022-10-17T04:51:16.285Z,12.70
2022-10-17T04:53:44.408Z,12.70
2022-10-17T04:56:16.951Z,12.70
2022-10-17T04:58:44.720Z,12.70
2022-10-17T05:01:17.536Z,12.60
2022-10-17T05:03:45.034Z,12.60
2022-10-17T05:06:17.961Z,12.70
2022-10-17T05:08:45.525Z,12.70
2022-10-17T05:11:19.737Z,12.70
2022-10-17T05:14:00.469Z,12.80
2022-10-17T05:16:28.864Z,12.90
2022-10-17T05:18:57.347Z,12.90
2022-10-17T05:21:26.371Z,13.00
2022-10-17T05:23:53.677Z,13.00
2022-10-17T05:26:21.556Z,13.00
2022-10-17T05:28:48.531Z,13.00
2022-10-17T05:31:15.419Z,13.00
2022-10-17T05:33:42.280Z,12.90
2022-10-17T05:36:09.771Z,12.90
2022-10-17T05:38:36.667Z,12.90
2022-10-17T05:41:05.273Z,12.90
2022-10-17T05:43:33.116Z,12.90
2022-10-17T05:46:03.926Z,12.90
2022-10-17T05:48:30.771Z,12.90
2022-10-17T05:50:59.511Z,12.90
2022-10-17T05:53:26.555Z,12.90
2022-10-17T05:56:00.921Z,12.90
2022-10-17T06:01:15.495Z,13.00
2022-10-17T06:03:42.511Z,13.10
2022-10-17T06:06:12.081Z,13.10
2022-10-17T06:08:39.401Z,13.10
2022-10-17T06:11:09.897Z,13.10
2022-10-17T06:13:37.963Z,13.00
2022-10-17T06:16:05.142Z,13.00
2022-10-17T06:18:32.421Z,13.10
2022-10-17T06:21:10.531Z,13.10
2022-10-17T06:23:37.465Z,13.10
2022-10-17T06:26:06.067Z,13.10
2022-10-17T06:28:33.601Z,13.20
2022-10-17T06:31:04.102Z,13.20
2022-10-17T06:33:31.097Z,13.20
2022-10-17T06:35:57.984Z,13.20
2022-10-17T06:38:24.926Z,13.30
2022-10-17T06:40:53.901Z,13.20
2022-10-17T06:43:25.580Z,13.30
2022-10-17T06:45:54.887Z,13.30
2022-10-17T06:48:21.886Z,13.40
2022-10-17T06:50:48.898Z,13.40
2022-10-17T06:53:15.671Z,13.40
2022-10-17T06:55:43.045Z,13.50
2022-10-17T06:58:09.886Z,13.50
2022-10-17T07:00:37.164Z,13.50
2022-10-17T07:03:04.185Z,13.60
2022-10-17T07:05:30.991Z,13.60
2022-10-17T07:07:57.856Z,13.70
2022-10-17T07:10:24.616Z,13.70
2022-10-17T07:12:51.390Z,13.80
2022-10-17T07:15:18.264Z,13.80
2022-10-17T07:17:50.341Z,13.90
2022-10-17T07:20:17.244Z,13.90
2022-10-17T07:22:44.251Z,14.00
2022-10-17T07:25:11.109Z,14.00
2022-10-17T07:27:38.115Z,14.10
2022-10-17T07:30:05.427Z,14.10
2022-10-17T07:32:32.205Z,14.20
2022-10-17T07:34:59.005Z,14.30
2022-10-17T07:37:25.868Z,14.30
2022-10-17T07:39:52.651Z,14.40
2022-10-17T07:42:19.460Z,14.50
2022-10-17T07:44:47.601Z,14.50
2022-10-17T07:47:14.453Z,14.60
2022-10-17T07:49:42.660Z,14.70
2022-10-17T07:52:14.193Z,14.80
2022-10-17T07:54:41.499Z,14.90
2022-10-17T07:57:08.898Z,15.10
2022-10-17T07:59:38.218Z,15.10
2022-10-17T08:02:07.129Z,15.20
2022-10-17T08:04:36.338Z,15.20
2022-10-17T08:07:18.306Z,15.30
2022-10-17T08:09:48.274Z,15.40
2022-10-17T08:12:15.471Z,15.40
2022-10-17T08:14:43.211Z,15.40
2022-10-17T08:17:10.493Z,15.60
2022-10-17T08:19:40.333Z,15.70
2022-10-17T08:22:07.709Z,16.00
2022-10-17T08:24:34.793Z,16.10
2022-10-17T08:27:01.654Z,16.00
2022-10-17T08:29:28.614Z,15.90
2022-10-17T08:32:00.183Z,15.90
2022-10-17T08:34:28.455Z,15.90
2022-10-17T08:36:55.293Z,15.90
2022-10-17T08:39:22.174Z,15.90
2022-10-17T08:42:11.773Z,15.90
2022-10-17T08:44:57.730Z,16.00
2022-10-17T08:47:35.157Z,16.20
2022-10-17T08:50:05.779Z,16.30
2022-10-17T08:52:44.810Z,16.20
2022-10-17T08:55:31.419Z,16.20
2022-10-17T08:57:58.178Z,16.10
2022-10-17T09:00:26.460Z,16.20
2022-10-17T09:03:16.140Z,16.10
2022-10-17T09:06:08.072Z,16.10
2022-10-17T09:08:47.178Z,16.10
2022-10-17T09:11:38.647Z,16.10
2022-10-17T09:14:32.971Z,16.00
2022-10-17T09:17:15.504Z,16.10
2022-10-17T09:19:59.650Z,16.10
2022-10-17T09:22:32.225Z,16.20
2022-10-17T09:25:03.492Z,16.30
2022-10-17T09:27:41.365Z,16.40
2022-10-17T09:30:46.239Z,16.70
2022-10-17T09:33:34.382Z,17.20
2022-10-17T09:36:13.065Z,17.70
2022-10-17T09:38:49.538Z,18.10
2022-10-17T09:41:44.088Z,18.50
2022-10-17T09:44:14.224Z,18.40
2022-10-17T09:46:43.651Z,18.50
2022-10-17T09:49:19.896Z,18.70
2022-10-17T09:51:48.660Z,18.90
2022-10-17T09:54:23.138Z,19.10
2022-10-17T09:57:05.999Z,19.20
2022-10-17T09:59:34.578Z,19.20
2022-10-17T10:02:17.986Z,19.40
2022-10-17T10:05:16.505Z,19.50
2022-10-17T10:07:59.577Z,19.60
2022-10-17T10:10:28.512Z,19.50
2022-10-17T10:13:22.480Z,19.40
2022-10-17T10:15:50.787Z,19.30
2022-10-17T10:18:26.980Z,19.10
2022-10-17T10:21:10.873Z,19.40
2022-10-17T10:23:40.458Z,19.70
2022-10-17T10:26:25.963Z,19.80
2022-10-17T10:28:55.076Z,19.80
2022-10-17T10:31:38.127Z,19.80
2022-10-17T10:34:27.141Z,19.90
2022-10-17T10:37:02.753Z,19.90
2022-10-17T10:39:34.690Z,19.90
2022-10-17T10:42:04.268Z,19.70
2022-10-17T10:44:33.029Z,19.80
2022-10-17T10:47:14.298Z,19.60
2022-10-17T10:49:41.776Z,19.70
2022-10-17T10:52:32.029Z,19.80
2022-10-17T10:55:24.896Z,20.00
2022-10-17T10:57:56.811Z,20.00
2022-10-17T11:00:27.808Z,20.20
2022-10-17T11:03:16.938Z,20.00
2022-10-17T11:05:50.848Z,20.00
2022-10-17T11:08:34.994Z,20.10
2022-10-17T11:11:17.813Z,20.00
2022-10-17T11:13:53.373Z,20.00
2022-10-17T11:16:48.464Z,20.10
2022-10-17T11:19:25.529Z,20.20
2022-10-17T11:22:09.144Z,20.20
2022-10-17T11:25:19.341Z,20.10
2022-10-17T11:27:46.155Z,20.00
2022-10-17T11:30:15.229Z,20.00
2022-10-17T11:32:59.778Z,20.00
2022-10-17T11:35:38.329Z,19.90
2022-10-17T11:38:40.767Z,20.00
2022-10-17T11:41:12.947Z,20.00
2022-10-17T11:43:55.142Z,20.10
2022-10-17T11:46:24.484Z,20.10
2022-10-17T11:49:20.219Z,20.10
2022-10-17T11:52:06.016Z,20.00
2022-10-17T11:54:32.733Z,20.00
2022-10-17T11:57:18.107Z,20.00
2022-10-17T11:59:59.355Z,19.90
2022-10-17T12:02:37.966Z,19.80
2022-10-17T12:05:22.838Z,19.80
2022-10-17T12:08:18.622Z,19.70
2022-10-17T12:11:03.980Z,19.90
2022-10-17T12:13:35.078Z,20.20
2022-10-17T12:16:20.258Z,20.40
2022-10-17T12:19:06.977Z,20.40
2022-10-17T12:22:03.550Z,20.40
2022-10-17T12:24:44.016Z,20.30
2022-10-17T12:27:31.944Z,20.30
2022-10-17T12:30:16.247Z,20.20
2022-10-17T12:33:06.649Z,20.20
2022-10-17T12:35:35.856Z,20.10
2022-10-17T12:38:17.770Z,20.00
2022-10-17T12:40:48.671Z,20.00
2022-10-17T12:43:15.893Z,19.80
2022-10-17T12:45:48.673Z,19.70
2022-10-17T12:48:33.505Z,19.50
2022-10-17T12:54:12.310Z,19.40
2022-10-17T12:56:42.874Z,19.50
2022-10-17T12:59:28.586Z,19.40
2022-10-17T13:02:01.776Z,19.30
2022-10-17T13:04:30.588Z,19.30
2022-10-17T13:06:59.228Z,19.20
2022-10-17T13:09:36.679Z,19.10
2022-10-17T13:12:06.690Z,19.00
2022-10-17T13:14:35.064Z,18.90
2022-10-17T13:17:05.454Z,18.70
2022-10-17T13:19:43.735Z,18.50
2022-10-17T13:22:24.337Z,18.50
2022-10-17T13:24:53.483Z,18.50
2022-10-17T13:27:29.765Z,18.40
2022-10-17T13:30:02.971Z,18.30
2022-10-17T13:32:38.490Z,18.30
2022-10-17T13:35:12.797Z,18.20
2022-10-17T13:37:42.676Z,18.10
2022-10-17T13:40:40.817Z,18.10
2022-10-17T13:43:06.023Z,18.00
2022-10-17T13:45:37.048Z,18.00
2022-10-17T13:48:19.510Z,17.90
2022-10-17T13:50:50.700Z,17.90
2022-10-17T13:53:39.861Z,17.90
2022-10-17T13:56:28.869Z,17.90
2022-10-17T13:59:00.077Z,17.90
2022-10-17T14:01:28.725Z,17.90
2022-10-17T14:04:07.874Z,17.90
2022-10-17T14:06:49.367Z,17.90
2022-10-17T14:09:20.911Z,18.00
2022-10-17T14:12:01.587Z,18.00
2022-10-17T14:14:30.423Z,18.00
2022-10-17T14:17:15.364Z,18.00
2022-10-17T14:19:43.100Z,17.90
2022-10-17T14:22:23.213Z,17.90
2022-10-17T14:24:54.246Z,17.90
2022-10-17T14:27:30.494Z,17.90
2022-10-17T14:30:03.693Z,17.90
2022-10-17T14:35:24.346Z,18.00
2022-10-17T14:37:54.011Z,17.90
2022-10-17T14:40:23.852Z,18.00
2022-10-17T14:42:53.305Z,17.90
2022-10-17T14:45:27.562Z,17.90
2022-10-17T14:48:02.085Z,17.90
2022-10-17T14:50:32.068Z,17.90
2022-10-17T14:53:11.175Z,17.90
2022-10-17T14:55:56.054Z,17.80
2022-10-17T14:58:28.087Z,17.80
2022-10-17T15:00:56.582Z,17.70
2022-10-17T15:03:24.268Z,17.60
2022-10-17T15:05:52.503Z,17.60
2022-10-17T15:08:21.136Z,17.60
2022-10-17T15:10:49.577Z,17.70
2022-10-17T15:13:27.787Z,17.60
2022-10-17T15:15:55.836Z,17.50
2022-10-17T15:18:22.734Z,17.40
2022-10-17T15:20:55.465Z,17.50
2022-10-17T15:23:32.214Z,17.50
2022-10-17T15:25:59.142Z,17.50
2022-10-17T15:28:27.451Z,17.50
2022-10-17T15:30:54.391Z,17.50
2022-10-17T15:33:21.199Z,17.50
2022-10-17T15:35:48.642Z,17.40
2022-10-17T15:38:18.135Z,17.40
2022-10-17T15:40:48.805Z,17.40
2022-10-17T15:43:19.662Z,17.30
2022-10-17T15:45:47.214Z,17.50
2022-10-17T15:48:23.786Z,17.50
2022-10-17T15:50:50.638Z,17.40
2022-10-17T15:53:17.604Z,17.40
2022-10-17T15:55:44.485Z,17.40
2022-10-17T15:58:16.432Z,17.20
2022-10-17T16:00:45.399Z,17.20
2022-10-17T16:03:15.045Z,17.00
2022-10-17T16:05:41.914Z,16.90
2022-10-17T16:08:08.890Z,16.90
2022-10-17T16:10:39.367Z,16.80
2022-10-17T16:13:06.434Z,16.80
2022-10-17T16:15:34.172Z,16.80
2022-10-17T16:18:04.367Z,16.70
2022-10-17T16:20:34.324Z,16.80
2022-10-17T16:23:03.369Z,16.70
2022-10-17T16:25:31.663Z,16.70
2022-10-17T16:28:01.244Z,16.60
2022-10-17T16:30:30.318Z,16.60
2022-10-17T16:32:57.178Z,16.50
2022-10-17T16:35:33.129Z,16.50
2022-10-17T16:38:04.252Z,16.50
2022-10-17T16:40:31.214Z,16.50
2022-10-17T16:42:58.392Z,16.40
2022-10-17T16:45:25.642Z,16.40
2022-10-17T16:47:53.475Z,16.40
2022-10-17T16:50:21.021Z,16.40
2022-10-17T16:52:47.973Z,16.40
2022-10-17T16:55:15.204Z,16.50
2022-10-17T17:00:12.754Z,16.40
2022-10-17T17:02:39.649Z,16.40
2022-10-17T17:05:07.203Z,16.30
2022-10-17T17:07:34.196Z,16.30
2022-10-17T17:10:01.175Z,16.30
2022-10-17T17:12:28.230Z,16.30
2022-10-17T17:14:55.213Z,16.30
2022-10-17T17:17:30.686Z,16.20
2022-10-17T17:20:10.736Z,16.20
2022-10-17T17:22:37.811Z,16.20
2022-10-17T17:25:05.178Z,16.10
2022-10-17T17:27:32.566Z,16.10
2022-10-17T17:29:59.677Z,16.10
2022-10-17T17:32:26.875Z,16.10
2022-10-17T17:34:54.452Z,16.10
2022-10-17T17:37:21.244Z,16.10
2022-10-17T17:39:48.216Z,16.10
2022-10-17T17:42:17.675Z,16.10
2022-10-17T17:44:45.188Z,16.00
2022-10-17T17:47:12.186Z,16.10
2022-10-17T17:49:39.096Z,16.00
2022-10-17T17:52:06.211Z,16.00
2022-10-17T17:54:37.178Z,16.00
2022-10-17T17:57:06.984Z,15.90
2022-10-17T17:59:34.090Z,15.90
2022-10-17T18:02:10.901Z,15.90
2022-10-17T18:04:37.876Z,15.90
2022-10-17T18:07:04.855Z,15.90
2022-10-17T18:09:31.697Z,15.90
2022-10-17T18:11:58.671Z,15.80
2022-10-17T18:14:25.650Z,15.90
2022-10-17T18:16:52.824Z,15.90
2022-10-17T18:19:19.881Z,15.90
2022-10-17T18:21:51.257Z,15.90
2022-10-17T18:24:18.619Z,15.90
2022-10-17T18:26:46.088Z,15.90
2022-10-17T18:29:13.034Z,15.80
2022-10-17T18:31:40.611Z,15.90
2022-10-17T18:34:07.642Z,15.90
2022-10-17T18:36:35.781Z,15.80
2022-10-17T18:39:03.722Z,15.80
2022-10-17T18:41:31.903Z,15.80
2022-10-17T18:44:01.542Z,15.80
2022-10-17T18:46:36.380Z,15.80
2022-10-17T18:49:03.610Z,15.80
2022-10-17T18:51:30.675Z,15.70
2022-10-17T18:53:58.788Z,15.70
2022-10-17T18:56:26.267Z,15.70
2022-10-17T18:58:53.865Z,15.70
2022-10-17T19:01:24.502Z,15.70
2022-10-17T19:03:54.395Z,15.70
2022-10-17T19:06:23.522Z,15.60
2022-10-17T19:08:50.523Z,15.60
2022-10-17T19:11:23.033Z,15.60
2022-10-17T19:13:50.139Z,15.60
2022-10-17T19:16:23.083Z,15.50
2022-10-17T19:19:01.700Z,15.60
2022-10-17T19:21:28.577Z,15.50
2022-10-17T19:24:02.396Z,15.50
2022-10-17T19:26:30.850Z,15.40
2022-10-17T19:29:00.454Z,15.30
2022-10-17T19:31:29.606Z,15.30
2022-10-17T19:33:57.020Z,15.30
2022-10-17T19:36:30.502Z,15.30
2022-10-17T19:39:05.493Z,15.30
2022-10-17T19:41:32.958Z,15.20
2022-10-17T19:44:00.762Z,15.30
2022-10-17T19:46:30.053Z,15.20
2022-10-17T19:48:57.613Z,15.30
2022-10-17T19:51:25.376Z,15.20
2022-10-17T19:53:53.782Z,15.20
2022-10-17T19:56:22.337Z,15.20
2022-10-17T19:58:50.481Z,15.20
2022-10-17T20:01:20.244Z,15.20
2022-10-17T20:03:47.413Z,15.20
2022-10-17T20:06:14.887Z,15.10
2022-10-17T20:08:42.486Z,15.20
2022-10-17T20:11:22.793Z,15.10
2022-10-17T20:13:50.326Z,15.10
2022-10-17T20:16:23.559Z,15.10
2022-10-17T20:18:51.806Z,15.20
2022-10-17T20:21:24.904Z,15.20
2022-10-17T20:23:51.990Z,15.00
2022-10-17T20:26:38.580Z,15.20
2022-10-17T20:29:11.837Z,15.10
2022-10-17T20:31:39.922Z,15.00
2022-10-17T20:34:06.856Z,15.00
2022-10-17T20:36:37.032Z,15.00
2022-10-17T20:39:05.440Z,15.00
2022-10-17T20:41:32.320Z,14.90
2022-10-17T20:43:59.377Z,14.90
2022-10-17T20:46:52.747Z,14.90
2022-10-17T20:49:19.725Z,14.90
2022-10-17T20:51:46.782Z,14.90
2022-10-17T20:54:14.024Z,15.00
2022-10-17T20:56:40.985Z,15.00
2022-10-17T20:59:12.315Z,15.10
2022-10-17T21:01:39.351Z,15.10
2022-10-17T21:04:33.312Z,15.10
2022-10-17T21:06:53.672Z,15.00
2022-10-17T21:09:20.973Z,15.10
2022-10-17T21:11:51.206Z,15.00
2022-10-17T21:14:18.678Z,15.00
2022-10-17T21:16:45.846Z,15.00
2022-10-17T21:19:13.315Z,15.10
2022-10-17T21:21:43.956Z,15.00
2022-10-17T21:24:17.862Z,15.00
2022-10-17T21:26:45.672Z,15.00
2022-10-17T21:29:13.931Z,14.90
2022-10-17T21:31:43.371Z,14.90
2022-10-17T21:34:15.782Z,14.90
2022-10-17T21:36:43.429Z,14.90
2022-10-17T21:39:11.835Z,14.90
2022-10-17T21:41:39.000Z,14.90
2022-10-17T21:44:08.408Z,14.90
2022-10-17T21:46:35.264Z,14.90
2022-10-17T21:49:05.635Z,14.90
2022-10-17T21:51:32.464Z,14.90
2022-10-17T21:54:04.427Z,14.90
2022-10-17T21:56:34.722Z,14.90
2022-10-17T21:59:02.016Z,14.90
2022-10-17T22:01:31.847Z,14.90
2022-10-17T22:04:01.172Z,14.90
2022-10-17T22:06:39.657Z,14.90
2022-10-17T22:09:11.828Z,14.90
2022-10-17T22:11:39.144Z,14.80
2022-10-17T22:14:11.211Z,14.80
2022-10-17T22:16:38.674Z,14.80
2022-10-17T22:19:07.039Z,14.80
2022-10-17T22:21:35.762Z,14.80
2022-10-17T22:24:05.662Z,14.70
2022-10-17T22:26:34.845Z,14.70
2022-10-17T22:29:02.120Z,14.70
2022-10-17T22:31:29.039Z,14.80
2022-10-17T22:33:56.508Z,14.80
2022-10-17T22:36:23.402Z,14.80
2022-10-17T22:38:50.232Z,14.80
2022-10-17T22:41:17.363Z,14.70
2022-10-17T22:43:44.265Z,14.80
2022-10-17T22:46:13.719Z,14.70
2022-10-17T22:48:40.764Z,14.80
2022-10-17T22:51:07.980Z,14.70
2022-10-17T22:53:35.939Z,14.70
2022-10-17T22:56:10.218Z,14.70
2022-10-17T22:58:37.653Z,14.60
2022-10-17T23:01:06.200Z,14.60
2022-10-17T23:03:33.700Z,14.50
2022-10-17T23:06:01.218Z,14.50
2022-10-17T23:08:28.440Z,14.50
2022-10-17T23:10:55.299Z,14.60
2022-10-17T23:13:22.458Z,14.50
2022-10-17T23:15:56.718Z,14.50
2022-10-17T23:18:25.895Z,14.60
2022-10-17T23:20:53.113Z,14.60
2022-10-17T23:23:20.699Z,14.60
2022-10-17T23:25:48.889Z,14.50
2022-10-17T23:28:16.570Z,14.50
2022-10-17T23:30:43.430Z,14.40
2022-10-17T23:33:13.170Z,14.30
2022-10-17T23:35:40.550Z,14.30
2022-10-17T23:38:07.757Z,14.30
2022-10-17T23:40:35.329Z,14.30
2022-10-17T23:43:03.670Z,14.30
2022-10-17T23:45:34.755Z,14.30
2022-10-17T23:48:05.032Z,14.40
2022-10-17T23:50:31.897Z,14.30
2022-10-17T23:52:58.688Z,14.20
2022-10-17T23:55:25.561Z,14.20
2022-10-17T23:57:52.408Z,14.20
